createdAt,value
2018-09-14T00:01:47.049Z,15.30
2018-09-14T00:06:50.129Z,15.30
2018-09-14T00:11:53.206Z,15.20
2018-09-14T00:16:56.272Z,15.20
2018-09-14T00:21:59.347Z,15.20
2018-09-14T00:27:02.412Z,15.10
2018-09-14T00:32:05.455Z,15.10
2018-09-14T00:37:08.534Z,15.10
2018-09-14T00:42:11.717Z,15.10
2018-09-14T00:47:14.793Z,15.10
2018-09-14T00:52:17.857Z,15.10
2018-09-14T00:57:20.985Z,15.00
2018-09-14T01:02:24.070Z,15.00
2018-09-14T01:07:27.149Z,15.10
2018-09-14T01:12:30.226Z,15.10
2018-09-14T01:17:33.277Z,15.10
2018-09-14T01:22:36.385Z,15.10
2018-09-14T01:27:39.460Z,15.10
2018-09-14T01:32:42.541Z,15.10
2018-09-14T01:37:45.618Z,15.10
2018-09-14T01:42:48.691Z,15.10
2018-09-14T01:47:51.770Z,15.10
2018-09-14T02:09:19.288Z,14.90
2018-09-14T02:14:22.386Z,14.90
2018-09-14T02:19:25.484Z,14.90
2018-09-14T02:24:28.572Z,14.80
2018-09-14T02:29:31.660Z,14.90
2018-09-14T02:34:34.731Z,14.80
2018-09-14T02:39:37.809Z,14.80
2018-09-14T02:44:40.874Z,14.80
2018-09-14T03:06:07.983Z,14.80
2018-09-14T03:11:11.072Z,14.80
2018-09-14T03:16:14.154Z,14.80
2018-09-14T03:21:17.235Z,14.80
2018-09-14T03:26:20.307Z,14.80
2018-09-14T03:31:23.388Z,14.80
2018-09-14T03:36:26.485Z,14.80
2018-09-14T03:41:29.545Z,14.70
2018-09-14T03:46:32.632Z,14.70
2018-09-14T04:07:59.312Z,14.70
2018-09-14T04:13:02.404Z,14.60
2018-09-14T04:18:05.606Z,14.70
2018-09-14T04:23:08.673Z,14.60
2018-09-14T04:28:11.760Z,14.60
2018-09-14T04:33:14.841Z,14.60
2018-09-14T04:38:18.042Z,14.50
2018-09-14T04:59:45.999Z,14.40
2018-09-14T05:04:49.091Z,14.40
2018-09-14T05:09:52.191Z,14.40
2018-09-14T05:14:55.273Z,14.40
2018-09-14T05:19:58.366Z,14.40
2018-09-14T05:25:01.595Z,14.40
2018-09-14T05:30:04.629Z,14.50
2018-09-14T05:35:07.737Z,14.50
2018-09-14T05:40:10.821Z,14.50
2018-09-14T05:45:13.923Z,14.50
2018-09-14T05:50:17.006Z,14.60
2018-09-14T05:55:20.090Z,14.60
2018-09-14T06:00:23.154Z,14.60
2018-09-14T06:05:26.237Z,14.60
2018-09-14T06:26:57.400Z,14.70
2018-09-14T06:32:00.584Z,14.70
2018-09-14T06:37:03.704Z,14.80
2018-09-14T06:42:06.792Z,14.90
2018-09-14T06:47:09.886Z,14.90
2018-09-14T06:52:13.046Z,15.00
2018-09-14T06:57:16.092Z,15.10
2018-09-14T07:02:19.165Z,15.10
2018-09-14T07:07:22.252Z,15.30
2018-09-14T07:12:25.316Z,15.30
2018-09-14T07:17:28.507Z,15.40
2018-09-14T07:22:31.673Z,15.50
2018-09-14T07:27:34.772Z,15.60
2018-09-14T07:32:37.868Z,15.80
2018-09-14T07:37:40.953Z,15.90
2018-09-14T07:42:44.064Z,16.00
2018-09-14T07:47:47.132Z,16.20
2018-09-14T08:09:14.439Z,16.80
2018-09-14T08:14:17.540Z,17.00
2018-09-14T08:19:20.623Z,17.20
2018-09-14T08:24:23.726Z,17.30
2018-09-14T08:29:26.798Z,17.50
2018-09-14T08:34:29.885Z,17.60
2018-09-14T08:39:32.979Z,17.70
2018-09-14T08:44:36.083Z,17.80
2018-09-14T08:49:39.167Z,17.90
2018-09-14T08:54:42.240Z,18.00
2018-09-14T08:59:45.338Z,18.20
2018-09-14T09:04:48.435Z,18.40
2018-09-14T09:09:51.495Z,18.50
2018-09-14T09:31:19.830Z,19.60
2018-09-14T09:36:22.933Z,19.90
2018-09-14T09:41:26.021Z,20.10
2018-09-14T10:02:59.589Z,20.90
2018-09-14T10:08:02.678Z,21.30
2018-09-14T10:13:05.740Z,21.80
2018-09-14T10:18:09.035Z,21.90
2018-09-14T10:23:12.130Z,22.00
2018-09-14T10:28:15.200Z,22.20
2018-09-14T10:33:18.273Z,22.10
2018-09-14T10:38:22.120Z,22.30
2018-09-14T10:59:50.557Z,21.90
2018-09-14T11:04:53.674Z,21.80
2018-09-14T11:09:56.748Z,21.80
2018-09-14T11:14:59.829Z,21.70
2018-09-14T11:20:03.225Z,21.80
2018-09-14T11:25:06.372Z,22.10
2018-09-14T11:30:09.620Z,22.60
2018-09-14T11:35:12.677Z,23.00
2018-09-14T11:40:15.772Z,23.50
2018-09-14T11:45:18.881Z,23.90
2018-09-14T12:06:46.636Z,24.30
2018-09-14T12:11:49.747Z,24.00
2018-09-14T12:16:52.812Z,23.70
2018-09-14T12:21:55.870Z,23.50
2018-09-14T12:26:58.979Z,23.20
2018-09-14T12:32:02.025Z,23.10
2018-09-14T12:53:30.003Z,22.20
2018-09-14T12:58:33.167Z,22.10
2018-09-14T13:03:36.253Z,22.00
2018-09-14T13:08:39.336Z,21.90
2018-09-14T13:30:07.501Z,21.80
2018-09-14T13:35:10.600Z,21.80
2018-09-14T13:40:13.690Z,21.70
2018-09-14T13:45:17.036Z,21.80
2018-09-14T13:50:20.108Z,21.70
2018-09-14T13:55:23.173Z,21.80
2018-09-14T14:00:26.266Z,21.80
2018-09-14T14:05:29.364Z,21.80
2018-09-14T14:10:32.445Z,21.90
2018-09-14T14:15:35.504Z,22.00
2018-09-14T14:20:38.642Z,22.00
2018-09-14T14:25:41.716Z,22.00
2018-09-14T14:30:44.795Z,22.00
2018-09-14T14:35:47.885Z,22.00
2018-09-14T14:40:50.965Z,21.90
2018-09-14T14:45:54.064Z,21.90
2018-09-14T14:50:57.134Z,21.80
2018-09-14T14:56:00.266Z,21.80
2018-09-14T15:17:41.982Z,21.90
2018-09-14T15:39:11.257Z,22.00
2018-09-14T16:00:45.861Z,21.80
2018-09-14T16:22:13.928Z,21.50
2018-09-14T16:27:17.021Z,21.40
2018-09-14T16:32:20.105Z,21.40
2018-09-14T16:37:23.157Z,21.30
2018-09-14T17:04:19.774Z,20.80
2018-09-14T17:09:22.892Z,20.60
2018-09-14T17:30:50.765Z,20.10
2018-09-14T17:35:53.849Z,20.00
2018-09-14T17:40:56.921Z,19.80
2018-09-14T17:46:00.005Z,19.70
2018-09-14T17:51:03.068Z,19.50
2018-09-14T17:56:06.133Z,19.40
2018-09-14T18:01:09.225Z,19.30
2018-09-14T18:06:12.300Z,19.10
2018-09-14T18:11:15.388Z,18.90
2018-09-14T18:16:18.507Z,18.80
2018-09-14T18:21:21.572Z,18.70
2018-09-14T18:42:48.959Z,18.10
2018-09-14T18:47:52.096Z,18.00
2018-09-14T18:52:55.185Z,17.90
2018-09-14T19:14:22.712Z,18.30
2018-09-14T19:19:25.864Z,18.50
2018-09-14T19:24:28.896Z,18.40
2018-09-14T19:29:31.984Z,18.20
2018-09-14T19:51:00.051Z,17.30
2018-09-14T20:12:26.241Z,16.80
2018-09-14T20:17:29.331Z,16.70
2018-09-14T20:22:32.399Z,16.60
2018-09-14T20:27:35.460Z,16.60
2018-09-14T20:32:38.756Z,16.50
2018-09-14T20:54:06.258Z,16.30
2018-09-14T20:59:09.336Z,16.20
2018-09-14T21:04:12.464Z,16.10
2018-09-14T21:09:15.516Z,16.00
2018-09-14T21:14:18.604Z,16.00
2018-09-14T21:19:21.669Z,15.90
2018-09-14T21:24:24.747Z,15.80
2018-09-14T21:29:29.744Z,15.80
2018-09-14T21:34:32.951Z,15.70
2018-09-14T21:56:00.319Z,15.50
2018-09-14T22:01:10.610Z,15.40
2018-09-14T22:06:13.696Z,15.40
2018-09-14T22:11:16.792Z,15.30
2018-09-14T22:16:20.337Z,15.20
2018-09-14T22:21:23.430Z,15.20
2018-09-14T22:42:49.852Z,14.90
2018-09-14T22:47:52.923Z,14.80
2018-09-14T22:52:55.987Z,14.80
2018-09-14T22:57:59.068Z,14.70
2018-09-14T23:03:02.156Z,14.70
2018-09-14T23:08:05.232Z,14.60
2018-09-14T23:13:08.295Z,14.60
2018-09-14T23:18:11.425Z,14.60
2018-09-14T23:23:14.582Z,14.60
2018-09-14T23:28:17.680Z,14.60
2018-09-14T23:33:20.790Z,14.60
2018-09-14T23:38:23.852Z,14.60
2018-09-14T23:43:26.925Z,14.60
2018-09-14T23:48:29.978Z,14.60
2018-09-14T23:53:33.044Z,14.60
2018-09-14T23:58:36.108Z,14.60
